Time;durP1;ratioP1;P1;durP2;ratioP2;P2;SDS_P1;SDS_P2;PMS_P1;PMS_P2;Temp;Humidity;BMP_temperature;BMP_pressure;BME280_temperature;BME280_humidity;BME280_pressure;Samples;Min_cycle;Max_cycle;Signal;HPM_P1;HPM_P2
2021/12/25 00:02:07;;;;;;;0.70;0.70;;;6.90;99.90;;;;;;5032242;28;20212;-72
2021/12/25 00:04:33;;;;;;;4.47;2.67;;;6.90;99.90;;;;;;5032017;28;20190;-72
2021/12/25 00:06:58;;;;;;;2.53;1.50;;;6.90;99.90;;;;;;5001185;28;20243;-72
2021/12/25 00:09:25;;;;;;;1.70;0.73;;;6.80;99.90;;;;;;5014314;28;20182;-72
2021/12/25 00:11:50;;;;;;;1.50;1.20;;;6.80;99.90;;;;;;5014125;28;20300;-72
2021/12/25 00:14:16;;;;;;;1.60;1.50;;;6.60;99.90;;;;;;5031957;28;20256;-72
2021/12/25 00:16:42;;;;;;;2.27;2.07;;;6.60;99.90;;;;;;5031829;28;20265;-72
2021/12/25 00:19:08;;;;;;;1.47;0.70;;;6.60;99.90;;;;;;5031679;28;20178;-72
2021/12/25 00:21:34;;;;;;;2.23;2.13;;;6.60;99.90;;;;;;5031442;28;20276;-72
2021/12/25 00:23:59;;;;;;;1.83;1.47;;;6.50;99.90;;;;;;5031717;28;20314;-72
2021/12/25 00:26:40;;;;;;;3.23;2.07;;;6.60;99.90;;;;;;5013867;28;20181;-72
2021/12/25 00:29:36;;;;;;;1.10;1.10;;;6.60;99.90;;;;;;5031782;28;20193;-72
2021/12/25 00:32:09;;;;;;;1.30;1.30;;;6.60;99.90;;;;;;5030919;28;20214;-72
2021/12/25 00:34:35;;;;;;;0.73;0.60;;;6.60;99.90;;;;;;5014146;28;20298;-72
2021/12/25 00:37:02;;;;;;;1.00;1.00;;;6.60;99.90;;;;;;5030883;28;20182;-71
2021/12/25 00:39:29;;;;;;;2.47;2.37;;;6.50;99.90;;;;;;5031611;28;20272;-72
2021/12/25 00:41:59;;;;;;;1.87;1.73;;;6.50;99.90;;;;;;5031397;28;20284;-72
2021/12/25 00:44:26;;;;;;;0.77;0.77;;;6.50;99.90;;;;;;5031060;28;20210;-72
2021/12/25 00:46:52;;;;;;;0.67;0.67;;;6.50;99.90;;;;;;5013339;28;20649;-72
2021/12/25 00:49:18;;;;;;;4.33;3.13;;;6.40;99.90;;;;;;5031440;28;20208;-72
2021/12/25 00:51:44;;;;;;;1.80;1.70;;;6.40;99.90;;;;;;5031183;28;20672;-72
2021/12/25 00:54:10;;;;;;;0.63;0.63;;;6.40;99.90;;;;;;5031416;28;20272;-72
2021/12/25 00:56:35;;;;;;;0.73;0.73;;;6.40;99.90;;;;;;5031147;28;20174;-72
2021/12/25 00:59:01;;;;;;;0.63;0.63;;;6.30;99.90;;;;;;5031630;28;20180;-72
2021/12/25 01:01:27;;;;;;;2.90;2.63;;;6.30;99.90;;;;;;5031291;28;20783;-72
2021/12/25 01:03:52;;;;;;;0.60;0.57;;;6.30;99.90;;;;;;5031293;28;20216;-72
2021/12/25 01:06:18;;;;;;;2.30;1.10;;;6.30;99.90;;;;;;5031052;28;20177;-72
2021/12/25 01:08:44;;;;;;;1.73;1.63;;;6.30;99.90;;;;;;5031184;28;20255;-72
2021/12/25 01:11:09;;;;;;;1.20;1.20;;;6.40;99.90;;;;;;5031203;28;20275;-72
2021/12/25 01:13:40;;;;;;;1.30;0.87;;;6.40;99.90;;;;;;5031088;28;20649;-73
2021/12/25 01:21:33;;;;;;;0.90;0.90;;;6.40;99.90;;;;;;5030631;28;20208;-73
2021/12/25 01:39:48;;;;;;;2.30;2.10;;;6.20;99.90;;;;;;5031136;28;20212;-72
2021/12/25 01:47:45;;;;;;;1.60;1.53;;;6.20;99.90;;;;;;5012957;28;20209;-73
2021/12/25 01:47:52;;;;;;;1.90;1.17;;;6.20;99.90;;;;;;5030745;28;20184;-72
2021/12/25 01:50:20;;;;;;;2.90;2.67;;;6.20;99.90;;;;;;5033103;28;20177;-72
2021/12/25 01:52:47;;;;;;;2.63;2.53;;;6.20;99.90;;;;;;5034807;28;20186;-73
2021/12/25 01:55:23;;;;;;;0.73;0.73;;;6.20;99.90;;;;;;5034924;28;20214;-73
2021/12/25 01:57:49;;;;;;;0.97;0.97;;;6.20;99.90;;;;;;5016632;28;20192;-72
2021/12/25 02:00:20;;;;;;;1.57;1.47;;;6.20;99.90;;;;;;5034325;28;20177;-72
2021/12/25 02:02:47;;;;;;;0.43;0.43;;;6.20;99.90;;;;;;5034528;28;20229;-73
2021/12/25 02:05:13;;;;;;;0.80;0.80;;;6.10;99.90;;;;;;5034339;28;20205;-73
2021/12/25 02:07:39;;;;;;;3.63;1.40;;;6.10;99.90;;;;;;5034045;28;20675;-73
2021/12/25 02:10:06;;;;;;;1.67;1.57;;;6.10;99.90;;;;;;5016489;28;20182;-72
2021/12/25 02:12:33;;;;;;;0.40;0.40;;;6.00;99.90;;;;;;5034093;28;20340;-72
2021/12/25 02:15:08;;;;;;;0.97;0.63;;;6.00;99.90;;;;;;5034007;28;20181;-73
2021/12/25 02:20:30;;;;;;;3.60;2.47;;;6.00;99.90;;;;;;5023198;28;20186;-72
2021/12/25 02:23:01;;;;;;;1.80;1.47;;;5.90;99.90;;;;;;5033709;28;20184;-73
2021/12/25 02:25:30;;;;;;;1.20;1.10;;;5.90;99.90;;;;;;5033758;28;20228;-72
2021/12/25 02:27:56;;;;;;;1.00;0.87;;;5.90;99.90;;;;;;5033719;28;20181;-71
2021/12/25 02:30:21;;;;;;;1.37;1.27;;;5.90;99.90;;;;;;5033904;28;20181;-72
2021/12/25 02:32:47;;;;;;;1.77;1.67;;;5.80;99.90;;;;;;5015921;28;20300;-72
2021/12/25 02:35:14;;;;;;;0.30;0.30;;;5.80;99.90;;;;;;5016104;28;20197;-73
2021/12/25 02:37:40;;;;;;;0.07;0.07;;;5.80;99.90;;;;;;5015662;28;20181;-73
2021/12/25 02:40:08;;;;;;;1.10;0.90;;;5.80;99.90;;;;;;5033704;28;20580;-71
2021/12/25 02:42:34;;;;;;;0.60;0.60;;;5.80;99.90;;;;;;5033480;28;20736;-72
2021/12/25 02:45:00;;;;;;;1.10;1.10;;;5.80;99.90;;;;;;5033388;28;20205;-71
2021/12/25 02:47:29;;;;;;;0.83;0.83;;;5.80;99.90;;;;;;5033145;28;20174;-72
2021/12/25 02:49:55;;;;;;;2.47;2.37;;;5.80;99.90;;;;;;5033375;28;20633;-72
2021/12/25 02:52:21;;;;;;;4.27;3.03;;;5.70;99.90;;;;;;5032818;28;20201;-72
2021/12/25 02:54:46;;;;;;;0.90;0.33;;;5.70;99.90;;;;;;5015661;28;20268;-72
2021/12/25 02:57:12;;;;;;;4.50;2.30;;;5.70;99.90;;;;;;5033194;28;20178;-72
2021/12/25 02:59:39;;;;;;;1.87;1.37;;;5.80;99.90;;;;;;5033141;28;20216;-72
2021/12/25 03:02:08;;;;;;;1.07;1.07;;;5.80;99.90;;;;;;5033110;28;20585;-72
2021/12/25 03:04:36;;;;;;;0.43;0.43;;;5.70;99.90;;;;;;5032860;28;20267;-72
2021/12/25 03:07:02;;;;;;;0.53;0.53;;;5.70;99.90;;;;;;5033261;28;20178;-72
2021/12/25 03:09:28;;;;;;;1.23;1.13;;;5.70;99.90;;;;;;5033043;28;20181;-72
2021/12/25 03:11:54;;;;;;;0.50;0.50;;;5.70;99.90;;;;;;5032986;28;20719;-73
2021/12/25 03:14:37;;;;;;;0.30;0.30;;;5.70;99.90;;;;;;5032962;28;20612;-73
2021/12/25 03:17:04;;;;;;;0.80;0.80;;;5.60;99.90;;;;;;5026763;28;20201;-72
2021/12/25 03:19:34;;;;;;;1.13;1.00;;;5.60;99.90;;;;;;5021623;28;20247;-71
2021/12/25 03:22:02;;;;;;;0.10;0.10;;;5.60;99.90;;;;;;5032555;28;20209;-72
2021/12/25 03:24:28;;;;;;;1.47;1.37;;;5.60;99.90;;;;;;5004181;28;20213;-72
2021/12/25 03:26:56;;;;;;;0.20;0.20;;;5.60;99.90;;;;;;5013262;28;20178;-73
2021/12/25 03:29:24;;;;;;;2.00;1.60;;;5.60;99.90;;;;;;5029522;28;20230;-73
2021/12/25 03:31:50;;;;;;;2.17;1.07;;;5.50;99.90;;;;;;5010549;28;20194;-72
2021/12/25 03:34:16;;;;;;;4.33;1.20;;;5.50;99.90;;;;;;5032128;28;20190;-72
2021/12/25 03:36:42;;;;;;;0.83;0.83;;;5.50;99.90;;;;;;5032265;28;20185;-72
2021/12/25 03:39:08;;;;;;;2.03;1.83;;;5.50;99.90;;;;;;5032289;28;20194;-72
2021/12/25 03:41:34;;;;;;;1.27;1.23;;;5.50;99.90;;;;;;5031954;28;20241;-72
2021/12/25 03:44:00;;;;;;;1.30;1.30;;;5.40;99.90;;;;;;5032510;28;20573;-72
2021/12/25 03:46:31;;;;;;;2.37;1.23;;;5.50;99.90;;;;;;5032241;28;20315;-73
2021/12/25 03:49:05;;;;;;;1.10;0.90;;;5.40;99.90;;;;;;5032420;28;20273;-72
2021/12/25 03:57:38;;;;;;;2.23;1.93;;;5.30;99.90;;;;;;4961290;29;20777;-72
2021/12/25 04:00:07;;;;;;;0.70;0.70;;;5.30;99.90;;;;;;4953323;29;20196;-72
2021/12/25 04:02:49;;;;;;;1.60;1.50;;;5.30;99.90;;;;;;5002297;28;20236;-72
2021/12/25 04:05:17;;;;;;;2.00;1.90;;;5.20;99.90;;;;;;5032494;28;20201;-73
2021/12/25 04:10:12;;;;;;;0.53;0.53;;;5.10;99.90;;;;;;5032683;28;20177;-72
2021/12/25 04:12:37;;;;;;;2.63;0.67;;;5.10;99.90;;;;;;5083920;22;20228;-74
2021/12/25 04:15:04;;;;;;;3.40;3.10;;;5.00;99.90;;;;;;5094904;28;20500;-75
2021/12/25 04:17:29;;;;;;;0.40;0.40;;;5.00;99.90;;;;;;5093512;28;20172;-75
2021/12/25 04:19:55;;;;;;;0.67;0.67;;;5.00;99.90;;;;;;5095512;28;20180;-75
2021/12/25 04:22:28;;;;;;;1.37;1.30;;;5.00;99.90;;;;;;5095394;28;20199;-75
2021/12/25 04:24:54;;;;;;;1.43;1.43;;;4.90;99.90;;;;;;5076358;28;20294;-74
2021/12/25 04:27:20;;;;;;;0.30;0.30;;;5.00;99.90;;;;;;5095301;28;20172;-74
2021/12/25 04:29:55;;;;;;;0.77;0.77;;;4.90;99.90;;;;;;5095588;28;20164;-76
2021/12/25 04:49:41;;;;;;;1.63;1.53;;;4.70;99.90;;;;;;5078001;28;20329;-76
2021/12/25 05:05:39;;;;;;;1.63;1.27;;;4.60;99.90;;;;;;5085930;28;20237;-76
2021/12/25 05:08:07;;;;;;;0.40;0.40;;;4.50;99.90;;;;;;5095002;28;20197;-75
2021/12/25 05:10:33;;;;;;;0.83;0.83;;;4.50;99.90;;;;;;5076825;28;20232;-75
2021/12/25 05:12:58;;;;;;;2.30;2.20;;;4.50;99.90;;;;;;5092939;28;20244;-75
2021/12/25 05:15:24;;;;;;;2.67;1.03;;;4.50;99.90;;;;;;5093408;28;20201;-76
2021/12/25 05:17:49;;;;;;;2.80;1.77;;;4.40;99.90;;;;;;5093365;28;20170;-76
2021/12/25 05:20:15;;;;;;;1.30;1.10;;;4.50;99.90;;;;;;5075453;28;20661;-76
2021/12/25 05:22:40;;;;;;;1.30;1.30;;;4.50;99.90;;;;;;5074872;28;20202;-76
2021/12/25 05:25:06;;;;;;;2.93;2.73;;;4.40;99.90;;;;;;5097012;28;20195;-76
2021/12/25 05:27:32;;;;;;;3.03;2.77;;;4.40;99.90;;;;;;5096248;28;20175;-75
2021/12/25 05:29:58;;;;;;;4.90;3.10;;;4.30;99.90;;;;;;5096862;28;20178;-76
2021/12/25 05:32:23;;;;;;;2.20;2.10;;;4.30;99.90;;;;;;5096265;28;20191;-75
2021/12/25 05:34:49;;;;;;;4.23;3.47;;;4.30;99.90;;;;;;5095869;28;20186;-75
2021/12/25 05:37:15;;;;;;;4.80;1.90;;;4.10;99.90;;;;;;5078058;28;20193;-76
2021/12/25 05:39:43;;;;;;;3.47;3.17;;;4.10;99.90;;;;;;5086415;28;20172;-75
2021/12/25 05:42:08;;;;;;;3.43;3.23;;;4.10;99.90;;;;;;5093046;28;20211;-75
2021/12/25 05:44:34;;;;;;;1.00;1.00;;;4.10;99.90;;;;;;5096256;28;20735;-76
2021/12/25 05:47:00;;;;;;;3.13;2.90;;;4.00;99.90;;;;;;5088524;28;20213;-76
2021/12/25 05:49:26;;;;;;;2.37;2.27;;;4.00;99.90;;;;;;5097983;28;20186;-76
2021/12/25 05:51:51;;;;;;;3.20;3.10;;;4.00;99.90;;;;;;5097232;28;20307;-76
2021/12/25 05:54:17;;;;;;;5.47;4.93;;;3.90;99.90;;;;;;5079047;28;20285;-76
2021/12/25 05:56:43;;;;;;;6.13;5.37;;;3.90;99.90;;;;;;5078037;28;20610;-75
2021/12/25 05:59:08;;;;;;;2.53;2.43;;;3.80;99.90;;;;;;5096840;28;20246;-75
2021/12/25 06:01:34;;;;;;;2.20;2.13;;;3.80;99.90;;;;;;5096923;28;20207;-75
2021/12/25 06:03:59;;;;;;;2.97;2.83;;;3.80;99.90;;;;;;5096955;28;20208;-75
2021/12/25 06:06:25;;;;;;;2.33;2.23;;;3.80;99.90;;;;;;5095727;28;20221;-76
2021/12/25 06:08:51;;;;;;;1.73;1.63;;;3.70;99.90;;;;;;5077988;28;20183;-75
2021/12/25 06:11:17;;;;;;;5.60;5.07;;;3.60;99.90;;;;;;5077836;28;20224;-76
2021/12/25 06:13:54;;;;;;;3.93;3.17;;;3.70;99.90;;;;;;5098344;28;20641;-76
2021/12/25 06:16:21;;;;;;;5.67;3.77;;;3.60;99.90;;;;;;5097501;28;20182;-76
2021/12/25 06:18:46;;;;;;;2.43;2.27;;;3.60;99.90;;;;;;5079460;28;20179;-76
2021/12/25 06:21:12;;;;;;;4.43;2.13;;;3.60;99.90;;;;;;5098242;28;20264;-77
2021/12/25 06:23:37;;;;;;;2.80;2.70;;;3.60;99.90;;;;;;5099004;28;20273;-75
2021/12/25 06:26:03;;;;;;;1.33;1.33;;;3.50;99.90;;;;;;5099849;28;20292;-76
2021/12/25 06:28:29;;;;;;;3.47;3.17;;;3.50;99.90;;;;;;5095283;28;20302;-76
2021/12/25 06:30:54;;;;;;;2.77;2.67;;;3.40;99.90;;;;;;5094833;28;20182;-76
2021/12/25 06:33:20;;;;;;;1.57;1.47;;;3.40;99.90;;;;;;5094952;28;20878;-76
2021/12/25 06:35:45;;;;;;;6.27;3.27;;;3.40;99.90;;;;;;5075976;28;20186;-76
2021/12/25 06:38:11;;;;;;;0.60;0.60;;;3.40;99.90;;;;;;5094909;28;20177;-76
2021/12/25 06:40:37;;;;;;;4.07;2.77;;;3.40;99.90;;;;;;5063154;28;20178;-76
2021/12/25 06:43:03;;;;;;;2.37;2.27;;;3.40;99.90;;;;;;5094922;28;20205;-76
2021/12/25 06:45:29;;;;;;;3.17;2.90;;;3.40;99.90;;;;;;5094926;28;20214;-76
2021/12/25 06:47:54;;;;;;;1.37;1.37;;;3.40;99.90;;;;;;5086505;28;20178;-76
2021/12/25 06:50:21;;;;;;;1.87;1.77;;;3.40;99.90;;;;;;5094360;28;20190;-75
2021/12/25 06:52:47;;;;;;;3.60;3.27;;;3.30;99.90;;;;;;5095338;28;20236;-76
2021/12/25 06:55:13;;;;;;;2.93;2.47;;;3.40;99.90;;;;;;5077504;28;20649;-76
2021/12/25 06:57:47;;;;;;;2.40;2.27;;;3.40;99.90;;;;;;5077257;28;20189;-76
2021/12/25 07:00:14;;;;;;;2.23;2.13;;;3.30;99.90;;;;;;5095353;28;20547;-76
2021/12/25 07:02:39;;;;;;;3.83;3.57;;;3.30;99.90;;;;;;5095066;28;20668;-75
2021/12/25 07:05:05;;;;;;;1.23;1.13;;;3.30;99.90;;;;;;5094734;28;20225;-76
2021/12/25 07:07:31;;;;;;;3.70;2.50;;;3.30;99.90;;;;;;5093943;28;20196;-76
2021/12/25 07:09:57;;;;;;;4.30;4.00;;;3.20;99.90;;;;;;5095087;28;20641;-76
2021/12/25 07:12:24;;;;;;;5.60;5.10;;;3.20;99.90;;;;;;5095747;28;20273;-76
2021/12/25 07:14:50;;;;;;;2.27;1.67;;;3.20;99.90;;;;;;5097981;28;20182;-76
2021/12/25 07:17:15;;;;;;;1.60;1.57;;;3.20;99.90;;;;;;5077074;28;20178;-75
2021/12/25 07:19:41;;;;;;;2.40;2.30;;;3.20;99.90;;;;;;5095417;28;20190;-77
2021/12/25 07:22:06;;;;;;;2.77;1.73;;;3.20;99.90;;;;;;5094769;28;20284;-78
2021/12/25 07:24:32;;;;;;;2.93;2.83;;;3.20;99.90;;;;;;5094896;28;20197;-77
2021/12/25 07:27:03;;;;;;;2.40;2.20;;;3.10;99.90;;;;;;5094829;28;20186;-78
2021/12/25 07:29:29;;;;;;;1.07;1.07;;;3.10;99.90;;;;;;5095522;28;20204;-78
2021/12/25 07:31:54;;;;;;;2.13;2.03;;;3.20;99.90;;;;;;5094289;28;20621;-77
2021/12/25 07:34:20;;;;;;;3.33;3.07;;;3.10;99.90;;;;;;5095821;28;20208;-78
2021/12/25 07:36:45;;;;;;;1.80;1.70;;;3.10;99.90;;;;;;5096067;28;20186;-78
2021/12/25 07:39:11;;;;;;;1.20;1.20;;;3.10;99.90;;;;;;5088013;28;20262;-76
2021/12/25 07:41:37;;;;;;;0.80;0.80;;;3.10;99.90;;;;;;5085003;28;20213;-76
2021/12/25 07:44:02;;;;;;;3.03;2.30;;;3.10;99.90;;;;;;5074712;28;20205;-76
2021/12/25 07:46:28;;;;;;;2.03;1.93;;;3.10;99.90;;;;;;5085102;28;20663;-76
2021/12/25 07:48:54;;;;;;;11.10;2.83;;;3.10;99.90;;;;;;5091040;28;20178;-76
2021/12/25 07:51:19;;;;;;;2.63;2.40;;;3.10;99.90;;;;;;5092697;28;20202;-76
2021/12/25 07:53:45;;;;;;;0.73;0.73;;;3.10;99.90;;;;;;5077214;28;20185;-75
2021/12/25 07:56:12;;;;;;;1.67;1.57;;;3.10;99.90;;;;;;5093078;28;20176;-75
2021/12/25 07:58:37;;;;;;;0.90;0.90;;;3.00;99.90;;;;;;5092339;28;20180;-74
2021/12/25 08:01:03;;;;;;;0.67;0.67;;;3.00;99.90;;;;;;5092968;28;20260;-76
2021/12/25 08:03:29;;;;;;;0.87;0.83;;;3.00;99.90;;;;;;5074515;28;20553;-76
2021/12/25 08:05:54;;;;;;;1.60;1.20;;;3.00;99.90;;;;;;5092887;28;20213;-76
2021/12/25 08:08:20;;;;;;;1.30;1.30;;;3.00;99.90;;;;;;5074467;28;20215;-76
2021/12/25 08:10:46;;;;;;;1.27;1.27;;;3.00;99.90;;;;;;5092614;28;20205;-76
2021/12/25 08:13:13;;;;;;;0.93;0.93;;;3.00;99.90;;;;;;5074398;28;20692;-76
2021/12/25 08:15:40;;;;;;;0.77;0.77;;;3.00;99.90;;;;;;5093009;28;20526;-76
2021/12/25 08:18:06;;;;;;;3.63;1.70;;;3.00;99.90;;;;;;5086445;28;20201;-76
2021/12/25 08:20:34;;;;;;;1.63;1.23;;;3.00;99.90;;;;;;5053002;28;20178;-76
2021/12/25 08:23:00;;;;;;;1.07;1.07;;;2.90;99.90;;;;;;5081239;28;20213;-76
2021/12/25 08:25:26;;;;;;;0.43;0.43;;;2.90;99.90;;;;;;5072394;28;20212;-75
2021/12/25 08:27:51;;;;;;;1.23;1.23;;;2.90;99.90;;;;;;5062125;28;20202;-76
2021/12/25 08:30:19;;;;;;;0.20;0.20;;;2.90;99.90;;;;;;5074728;28;20181;-76
2021/12/25 08:32:46;;;;;;;0.47;0.47;;;2.90;99.90;;;;;;5074012;28;20572;-76
2021/12/25 08:35:14;;;;;;;2.20;2.00;;;2.90;99.90;;;;;;5092622;28;20178;-76
2021/12/25 08:37:40;;;;;;;1.73;1.63;;;2.90;99.90;;;;;;5092091;28;20188;-76
2021/12/25 08:40:08;;;;;;;0.83;0.83;;;2.90;99.90;;;;;;5078464;28;20595;-75
2021/12/25 08:42:33;;;;;;;1.70;1.60;;;2.90;99.90;;;;;;5079160;28;20201;-76
2021/12/25 08:47:26;;;;;;;2.73;2.27;;;2.90;99.90;;;;;;5084249;28;20228;-76
2021/12/25 08:49:51;;;;;;;1.30;1.30;;;2.90;99.90;;;;;;5092617;28;20604;-76
2021/12/25 08:52:19;;;;;;;0.40;0.40;;;2.90;99.90;;;;;;5092396;28;20205;-76
2021/12/25 08:54:48;;;;;;;1.33;1.17;;;3.00;99.90;;;;;;5092195;28;20219;-76
2021/12/25 08:57:14;;;;;;;3.33;3.03;;;3.00;99.90;;;;;;5074092;28;20196;-76
2021/12/25 08:59:40;;;;;;;0.83;0.83;;;3.00;99.90;;;;;;5092880;28;20180;-77
2021/12/25 09:02:10;;;;;;;1.90;1.73;;;3.00;99.90;;;;;;5094005;28;20205;-76
2021/12/25 09:04:37;;;;;;;1.40;1.30;;;3.00;99.90;;;;;;5091717;28;20254;-76
2021/12/25 09:07:04;;;;;;;0.57;0.40;;;3.00;99.90;;;;;;5091953;28;20188;-76
2021/12/25 09:09:29;;;;;;;0.37;0.37;;;3.10;99.90;;;;;;5091772;28;20181;-76
2021/12/25 09:11:55;;;;;;;3.13;2.93;;;3.00;99.90;;;;;;5091928;28;20322;-76
2021/12/25 09:14:21;;;;;;;0.57;0.57;;;3.00;99.90;;;;;;5073906;28;20185;-76
2021/12/25 09:16:47;;;;;;;0.77;0.77;;;3.00;99.90;;;;;;5091804;28;20222;-76
2021/12/25 09:19:13;;;;;;;1.27;1.27;;;3.20;99.90;;;;;;5073911;28;20271;-77
2021/12/25 09:21:38;;;;;;;0.10;0.10;;;3.10;99.90;;;;;;5092306;28;20210;-74
2021/12/25 09:24:04;;;;;;;5.43;2.50;;;3.20;99.90;;;;;;5091842;28;20206;-75
2021/12/25 09:26:30;;;;;;;2.90;2.00;;;3.30;99.90;;;;;;5073034;28;20219;-76
2021/12/25 09:28:55;;;;;;;0.53;0.53;;;3.20;99.90;;;;;;5091904;28;20179;-76
2021/12/25 09:31:21;;;;;;;1.00;1.00;;;3.30;99.90;;;;;;5091720;28;20206;-75
2021/12/25 09:33:47;;;;;;;2.07;1.97;;;3.20;99.90;;;;;;5092178;28;20273;-76
2021/12/25 09:36:12;;;;;;;3.30;1.67;;;3.30;99.90;;;;;;5091596;28;20174;-75
2021/12/25 09:38:38;;;;;;;0.23;0.23;;;3.30;99.90;;;;;;5090796;28;20236;-75
2021/12/25 09:41:04;;;;;;;0.40;0.40;;;3.40;99.90;;;;;;5079537;28;20657;-75
2021/12/25 09:43:31;;;;;;;0.10;0.10;;;3.40;99.90;;;;;;5091014;28;20194;-76
2021/12/25 09:45:57;;;;;;;1.03;1.03;;;3.40;99.90;;;;;;5088717;28;20199;-76
2021/12/25 09:48:23;;;;;;;1.70;1.60;;;3.50;99.90;;;;;;5086513;28;20307;-76
2021/12/25 09:50:49;;;;;;;0.47;0.37;;;3.50;99.90;;;;;;5073359;28;20604;-75
2021/12/25 09:53:17;;;;;;;1.23;1.23;;;3.50;99.90;;;;;;5091095;28;20253;-75
2021/12/25 09:55:43;;;;;;;0.70;0.70;;;3.60;99.90;;;;;;5091075;28;20323;-75
2021/12/25 09:58:10;;;;;;;1.30;1.30;;;3.70;99.90;;;;;;5091441;28;20179;-76
2021/12/25 10:00:39;;;;;;;0.33;0.33;;;3.70;99.90;;;;;;5091651;28;20186;-76
2021/12/25 10:03:05;;;;;;;0.37;0.37;;;3.80;99.90;;;;;;5091479;28;20245;-76
2021/12/25 10:05:35;;;;;;;1.33;1.27;;;3.80;99.90;;;;;;5091716;28;20757;-76
2021/12/25 10:08:08;;;;;;;0.40;0.33;;;3.80;99.90;;;;;;5091453;28;20241;-76
2021/12/25 10:10:44;;;;;;;1.90;1.33;;;3.80;99.90;;;;;;5093229;28;20183;-76
2021/12/25 10:15:38;;;;;;;1.53;1.43;;;3.80;99.90;;;;;;5066134;28;20253;-77
2021/12/25 10:18:04;;;;;;;2.13;0.40;;;3.80;99.90;;;;;;5055025;28;20184;-77
2021/12/25 10:20:32;;;;;;;0.87;0.87;;;3.90;99.90;;;;;;5055150;28;20183;-76
2021/12/25 10:23:08;;;;;;;0.73;0.73;;;3.90;99.90;;;;;;5074590;28;20200;-76
2021/12/25 10:25:43;;;;;;;0.20;0.20;;;3.80;99.90;;;;;;5074278;28;20200;-77
2021/12/25 10:28:10;;;;;;;0.77;0.77;;;3.90;99.90;;;;;;5074680;28;20598;-77
2021/12/25 10:30:54;;;;;;;0.00;0.00;;;3.90;99.90;;;;;;5074728;28;20615;-77
2021/12/25 10:33:39;;;;;;;0.70;0.70;;;3.90;99.90;;;;;;5074781;28;20203;-78
2021/12/25 10:36:24;;;;;;;0.63;0.57;;;3.90;99.90;;;;;;5074339;28;20187;-77
2021/12/25 10:39:10;;;;;;;1.17;0.60;;;3.90;99.90;;;;;;5053696;28;20199;-78
2021/12/25 10:41:49;;;;;;;0.30;0.30;;;3.90;99.90;;;;;;5048620;28;20180;-77
2021/12/25 10:44:21;;;;;;;0.40;0.40;;;4.00;99.90;;;;;;5048708;28;20199;-77
2021/12/25 10:47:00;;;;;;;0.40;0.40;;;4.00;99.90;;;;;;5053679;28;20188;-77
2021/12/25 10:49:35;;;;;;;0.63;0.63;;;3.90;99.90;;;;;;5056282;28;20529;-77
2021/12/25 10:52:27;;;;;;;0.47;0.47;;;3.90;99.90;;;;;;5056489;28;20548;-77
2021/12/25 10:54:55;;;;;;;0.40;0.40;;;3.90;99.90;;;;;;5065572;28;20191;-77
2021/12/25 10:57:50;;;;;;;0.37;0.37;;;4.00;99.90;;;;;;5048555;28;20728;-77
2021/12/25 11:00:22;;;;;;;1.00;1.00;;;4.10;99.90;;;;;;5042730;28;20226;-77
2021/12/25 11:02:51;;;;;;;0.07;0.07;;;4.10;99.90;;;;;;5075741;28;20290;-76
2021/12/25 11:05:20;;;;;;;0.30;0.30;;;4.10;99.90;;;;;;5077496;28;20227;-75
2021/12/25 11:07:46;;;;;;;0.20;0.20;;;4.10;99.90;;;;;;5082488;28;20255;-77
2021/12/25 11:10:18;;;;;;;0.00;0.00;;;4.10;99.90;;;;;;5062700;28;20254;-76
2021/12/25 11:12:43;;;;;;;0.10;0.10;;;4.10;99.90;;;;;;5068298;28;20534;-77
2021/12/25 11:15:12;;;;;;;0.40;0.40;;;4.10;99.90;;;;;;5047414;28;20236;-76
2021/12/25 11:17:40;;;;;;;0.00;0.00;;;4.10;99.90;;;;;;5067030;28;20180;-77
2021/12/25 11:20:08;;;;;;;0.67;0.67;;;4.10;99.90;;;;;;5073677;28;20181;-77
2021/12/25 11:22:50;;;;;;;0.50;0.50;;;4.10;99.90;;;;;;5054397;28;20204;-77
2021/12/25 11:25:18;;;;;;;0.17;0.17;;;4.10;99.90;;;;;;5037279;28;20214;-76
2021/12/25 11:27:43;;;;;;;0.00;0.00;;;4.10;99.90;;;;;;5072215;28;20203;-77
2021/12/25 11:30:10;;;;;;;0.10;0.10;;;4.10;99.90;;;;;;5057430;28;20568;-76
2021/12/25 11:32:36;;;;;;;0.00;0.00;;;4.10;99.90;;;;;;5074923;28;20199;-77
2021/12/25 11:35:02;;;;;;;0.40;0.40;;;4.10;99.90;;;;;;5074627;28;20691;-77
2021/12/25 11:37:28;;;;;;;0.00;0.00;;;4.10;99.90;;;;;;5060072;28;20583;-76
2021/12/25 11:39:55;;;;;;;0.50;0.50;;;4.00;99.90;;;;;;5073932;28;20180;-77
2021/12/25 11:42:23;;;;;;;1.73;1.37;;;4.00;99.90;;;;;;5055263;28;20193;-76
2021/12/25 11:44:54;;;;;;;0.60;0.60;;;4.10;99.90;;;;;;5036794;28;20201;-75
2021/12/25 11:47:42;;;;;;;0.00;0.00;;;4.10;99.90;;;;;;5059770;28;20231;-76
2021/12/25 11:50:13;;;;;;;0.33;0.33;;;4.10;99.90;;;;;;5074083;28;20172;-76
2021/12/25 11:52:45;;;;;;;0.10;0.10;;;4.10;99.90;;;;;;5055284;28;20193;-76
2021/12/25 11:58:43;;;;;;;0.10;0.10;;;4.30;99.90;;;;;;5072032;28;20215;-75
2021/12/25 12:01:23;;;;;;;0.30;0.30;;;4.30;99.90;;;;;;5053128;28;20164;-76
2021/12/25 12:03:56;;;;;;;0.20;0.20;;;4.30;99.90;;;;;;5059999;28;20203;-75
2021/12/25 12:06:46;;;;;;;0.10;0.10;;;4.30;99.90;;;;;;5040330;28;20190;-76
2021/12/25 12:09:17;;;;;;;0.20;0.20;;;4.20;99.90;;;;;;5065193;28;20257;-76
2021/12/25 12:12:03;;;;;;;0.00;0.00;;;4.20;99.90;;;;;;5064209;28;20188;-75
2021/12/25 12:14:29;;;;;;;0.37;0.37;;;4.20;99.90;;;;;;5051426;28;20207;-76
2021/12/25 12:17:17;;;;;;;0.10;0.10;;;4.30;99.90;;;;;;5062271;28;20786;-75
2021/12/25 12:19:45;;;;;;;0.10;0.10;;;4.30;99.90;;;;;;5070022;28;20238;-76
2021/12/25 12:22:32;;;;;;;0.70;0.70;;;4.20;99.90;;;;;;5053362;28;20282;-72
2021/12/25 12:25:47;;;;;;;0.67;0.67;;;4.10;99.90;;;;;;5049240;28;20196;-76
2021/12/25 12:28:07;;;;;;;0.30;0.30;;;4.00;99.90;;;;;;5060318;28;20234;-74
2021/12/25 12:30:46;;;;;;;0.00;0.00;;;3.90;99.90;;;;;;5054816;28;20193;-75
2021/12/25 12:33:13;;;;;;;0.00;0.00;;;3.80;99.90;;;;;;5062379;28;20196;-76
2021/12/25 12:35:41;;;;;;;0.17;0.17;;;3.70;99.90;;;;;;5051670;28;20267;-75
2021/12/25 12:38:30;;;;;;;0.10;0.10;;;3.70;99.90;;;;;;5044410;28;20665;-75
2021/12/25 12:41:39;;;;;;;0.10;0.10;;;3.70;99.90;;;;;;5055149;28;20204;-76
2021/12/25 12:44:04;;;;;;;0.00;0.00;;;3.70;99.90;;;;;;5059144;28;20187;-76
2021/12/25 12:46:48;;;;;;;0.67;0.57;;;3.70;99.90;;;;;;5068772;28;20187;-75
2021/12/25 12:49:19;;;;;;;0.10;0.10;;;3.80;99.90;;;;;;5054631;28;20210;-76
2021/12/25 12:51:46;;;;;;;0.13;0.13;;;3.80;99.90;;;;;;5067291;28;20176;-75
2021/12/25 12:54:38;;;;;;;0.10;0.10;;;3.80;99.90;;;;;;5071877;28;20201;-75
2021/12/25 12:57:04;;;;;;;0.30;0.30;;;3.90;99.90;;;;;;5053187;28;20172;-76
2021/12/25 12:59:49;;;;;;;0.20;0.20;;;3.90;99.90;;;;;;5042086;28;20626;-75
2021/12/25 13:02:16;;;;;;;0.10;0.10;;;3.90;99.90;;;;;;5048024;28;20274;-75
2021/12/25 13:04:49;;;;;;;0.10;0.10;;;4.00;99.90;;;;;;5071056;28;20188;-75
2021/12/25 13:07:20;;;;;;;0.87;0.87;;;4.00;99.90;;;;;;5060801;28;20176;-75
2021/12/25 13:09:57;;;;;;;0.00;0.00;;;3.90;99.90;;;;;;5072684;28;20175;-75
2021/12/25 13:12:43;;;;;;;0.10;0.10;;;3.90;99.90;;;;;;5043028;28;20193;-76
2021/12/25 13:15:19;;;;;;;0.00;0.00;;;3.80;99.90;;;;;;5072178;28;20620;-76
2021/12/25 13:17:59;;;;;;;0.37;0.37;;;3.80;99.90;;;;;;5052028;28;20186;-76
2021/12/25 13:20:52;;;;;;;0.10;0.10;;;3.80;99.90;;;;;;5034105;28;20174;-75
2021/12/25 13:23:34;;;;;;;0.20;0.20;;;3.80;99.90;;;;;;5040993;28;20669;-76
2021/12/25 13:26:09;;;;;;;0.17;0.17;;;3.80;99.90;;;;;;5071635;28;20249;-75
2021/12/25 13:28:42;;;;;;;0.73;0.73;;;3.80;99.90;;;;;;5072329;28;20184;-75
2021/12/25 13:31:14;;;;;;;0.00;0.00;;;3.80;99.90;;;;;;5072752;28;20191;-76
2021/12/25 13:33:58;;;;;;;0.00;0.00;;;3.80;99.90;;;;;;5071778;28;20192;-75
2021/12/25 13:36:28;;;;;;;0.00;0.00;;;3.70;99.90;;;;;;5072117;28;20176;-75
2021/12/25 13:38:56;;;;;;;0.10;0.10;;;3.70;99.90;;;;;;5068589;28;20172;-75
2021/12/25 13:41:33;;;;;;;0.10;0.10;;;3.60;99.90;;;;;;5062318;28;20245;-75
2021/12/25 13:44:08;;;;;;;0.00;0.00;;;3.50;99.90;;;;;;5055986;28;20240;-75
2021/12/25 13:47:01;;;;;;;3.60;2.47;;;3.50;99.90;;;;;;5065710;28;20653;-75
2021/12/25 13:49:42;;;;;;;0.10;0.10;;;3.40;99.90;;;;;;5048487;28;20192;-76
2021/12/25 13:52:33;;;;;;;1.30;1.30;;;3.40;99.90;;;;;;5064070;28;20194;-75
2021/12/25 13:55:21;;;;;;;0.00;0.00;;;3.40;99.90;;;;;;5075544;28;20190;-76
2021/12/25 13:57:57;;;;;;;3.90;0.57;;;3.40;99.90;;;;;;5074203;28;20196;-76
2021/12/25 14:00:35;;;;;;;0.13;0.13;;;3.40;99.90;;;;;;5054598;28;20187;-75
2021/12/25 14:03:09;;;;;;;0.00;0.00;;;3.40;99.90;;;;;;5056432;28;20240;-76
2021/12/25 14:05:38;;;;;;;0.00;0.00;;;3.30;99.90;;;;;;5057754;28;20262;-75
2021/12/25 14:08:05;;;;;;;0.00;0.00;;;3.30;99.90;;;;;;5074925;28;20186;-75
2021/12/25 14:10:32;;;;;;;0.10;0.10;;;3.30;99.90;;;;;;5056961;28;20522;-75
2021/12/25 14:13:01;;;;;;;0.10;0.10;;;3.20;99.90;;;;;;5057832;28;20202;-72
2021/12/25 14:15:33;;;;;;;0.10;0.10;;;3.20;99.90;;;;;;5056714;28;20288;-75
2021/12/25 14:18:02;;;;;;;0.10;0.10;;;3.20;99.90;;;;;;5073855;28;20648;-75
2021/12/25 14:20:31;;;;;;;0.00;0.00;;;3.10;99.90;;;;;;5074578;28;20204;-75
2021/12/25 14:23:09;;;;;;;0.17;0.17;;;3.10;99.90;;;;;;5074430;28;20210;-75
2021/12/25 14:25:37;;;;;;;0.00;0.00;;;3.10;99.90;;;;;;5074468;28;20215;-75